sensor_id;sensor_type;location;lat;lon;timestamp;pressure;altitude;pressure_sealevel;temperature;humidity
50394;BME280;36308;46.312;25.288;2023-06-19T00:01:55;96207.22;;;16.88;74.04
50394;BME280;36308;46.312;25.288;2023-06-19T00:04:21;96210.22;;;16.86;74.21
50394;BME280;36308;46.312;25.288;2023-06-19T00:06:46;96210.22;;;16.86;74.31
50394;BME280;36308;46.312;25.288;2023-06-19T00:09:13;96199.97;;;16.83;74.05
50394;BME280;36308;46.312;25.288;2023-06-19T00:11:39;96199.69;;;16.80;74.01
50394;BME280;36308;46.312;25.288;2023-06-19T00:14:04;96202.69;;;16.78;73.87
50394;BME280;36308;46.312;25.288;2023-06-19T00:16:31;96189.22;;;16.73;74.04
50394;BME280;36308;46.312;25.288;2023-06-19T00:18:56;96198.97;;;16.74;74.29
50394;BME280;36308;46.312;25.288;2023-06-19T00:21:23;96196.84;;;16.71;73.95
50394;BME280;36308;46.312;25.288;2023-06-19T00:23:52;96197.41;;;16.68;74.04
50394;BME280;36308;46.312;25.288;2023-06-19T00:26:18;96187.16;;;16.65;74.35
50394;BME280;36308;46.312;25.288;2023-06-19T00:28:48;96195.28;;;16.65;74.22
50394;BME280;36308;46.312;25.288;2023-06-19T00:31:14;96198.28;;;16.63;74.46
50394;BME280;36308;46.312;25.288;2023-06-19T00:33:40;96198.56;;;16.62;74.32
50394;BME280;36308;46.312;25.288;2023-06-19T00:36:13;96204.59;;;16.59;74.39
50394;BME280;36308;46.312;25.288;2023-06-19T00:38:39;96213.84;;;16.57;74.45
50394;BME280;36308;46.312;25.288;2023-06-19T00:41:05;96206.00;;;16.56;74.47
50394;BME280;36308;46.312;25.288;2023-06-19T00:43:31;96206.56;;;16.53;74.23
50394;BME280;36308;46.312;25.288;2023-06-19T00:46:00;96204.13;;;16.51;74.49
50394;BME280;36308;46.312;25.288;2023-06-19T00:48:27;96204.75;;;16.48;74.91
50394;BME280;36308;46.312;25.288;2023-06-19T00:50:54;96200.41;;;16.47;74.86
50394;BME280;36308;46.312;25.288;2023-06-19T00:53:22;96190.66;;;16.46;74.77
50394;BME280;36308;46.312;25.288;2023-06-19T00:55:48;96201.00;;;16.44;74.78
50394;BME280;36308;46.312;25.288;2023-06-19T00:58:15;96196.66;;;16.43;74.78
50394;BME280;36308;46.312;25.288;2023-06-19T01:00:40;96195.03;;;16.42;74.89
50394;BME280;36308;46.312;25.288;2023-06-19T01:03:06;96193.41;;;16.41;75.00
50394;BME280;36308;46.312;25.288;2023-06-19T01:05:32;96193.41;;;16.41;74.93
50394;BME280;36308;46.312;25.288;2023-06-19T01:11:02;96185.59;;;16.40;75.07
50394;BME280;36308;46.312;25.288;2023-06-19T01:13:58;96187.78;;;16.38;75.22
50394;BME280;36308;46.312;25.288;2023-06-19T01:16:26;96187.78;;;16.38;75.08
50394;BME280;36308;46.312;25.288;2023-06-19T01:18:53;96194.81;;;16.39;75.30
50394;BME280;36308;46.312;25.288;2023-06-19T01:21:19;96190.19;;;16.39;75.43
50394;BME280;36308;46.312;25.288;2023-06-19T01:23:45;96193.72;;;16.40;75.43
50394;BME280;36308;46.312;25.288;2023-06-19T01:26:12;96180.16;;;16.40;75.74
50394;BME280;36308;46.312;25.288;2023-06-19T01:28:40;96173.91;;;16.39;75.16
50394;BME280;36308;46.312;25.288;2023-06-19T01:31:11;96177.72;;;16.38;75.21
50394;BME280;36308;46.312;25.288;2023-06-19T01:33:39;96176.09;;;16.37;75.41
50394;BME280;36308;46.312;25.288;2023-06-19T01:36:06;96170.16;;;16.35;75.43
50394;BME280;36308;46.312;25.288;2023-06-19T01:38:34;96175.31;;;16.36;75.26
50394;BME280;36308;46.312;25.288;2023-06-19T01:41:00;96181.53;;;16.37;75.60
50394;BME280;36308;46.312;25.288;2023-06-19T01:43:29;96175.31;;;16.36;75.37
50394;BME280;36308;46.312;25.288;2023-06-19T01:45:57;96171.28;;;16.34;75.26
50394;BME280;36308;46.312;25.288;2023-06-19T01:48:23;96171.00;;;16.35;76.07
50394;BME280;36308;46.312;25.288;2023-06-19T01:50:48;96173.38;;;16.37;75.90
50394;BME280;36308;46.312;25.288;2023-06-19T01:53:15;96172.31;;;16.38;75.84
50394;BME280;36308;46.312;25.288;2023-06-19T01:55:41;96159.81;;;16.37;75.57
50394;BME280;36308;46.312;25.288;2023-06-19T01:58:06;96171.78;;;16.36;75.64
50394;BME280;36308;46.312;25.288;2023-06-19T02:00:32;96170.69;;;16.37;75.64
50394;BME280;36308;46.312;25.288;2023-06-19T02:03:01;96180.44;;;16.38;75.62
50394;BME280;36308;46.312;25.288;2023-06-19T02:05:26;96175.31;;;16.36;76.01
50394;BME280;36308;46.312;25.288;2023-06-19T02:07:52;96169.34;;;16.34;75.88
50394;BME280;36308;46.312;25.288;2023-06-19T02:10:18;96161.22;;;16.34;75.57
50394;BME280;36308;46.312;25.288;2023-06-19T02:12:43;96159.03;;;16.36;75.95
50394;BME280;36308;46.312;25.288;2023-06-19T02:15:09;96156.59;;;16.35;75.74
50394;BME280;36308;46.312;25.288;2023-06-19T02:17:35;96163.66;;;16.36;75.67
50394;BME280;36308;46.312;25.288;2023-06-19T02:20:01;96155.00;;;16.34;75.69
50394;BME280;36308;46.312;25.288;2023-06-19T02:22:26;96161.50;;;16.33;75.78
50394;BME280;36308;46.312;25.288;2023-06-19T02:24:52;96160.69;;;16.32;75.78
50394;BME280;36308;46.312;25.288;2023-06-19T02:27:17;96164.22;;;16.33;76.20
50394;BME280;36308;46.312;25.288;2023-06-19T02:29:43;96162.63;;;16.32;76.01
50394;BME280;36308;46.312;25.288;2023-06-19T02:32:08;96162.63;;;16.32;75.91
50394;BME280;36308;46.312;25.288;2023-06-19T02:34:33;96162.63;;;16.32;76.25
50394;BME280;36308;46.312;25.288;2023-06-19T02:36:59;96168.03;;;16.32;76.32
50394;BME280;36308;46.312;25.288;2023-06-19T02:39:25;96177.25;;;16.31;76.31
50394;BME280;36308;46.312;25.288;2023-06-19T02:41:50;96170.22;;;16.30;76.02
50394;BME280;36308;46.312;25.288;2023-06-19T02:44:16;96165.09;;;16.28;76.03
50394;BME280;36308;46.312;25.288;2023-06-19T02:46:41;96169.72;;;16.28;76.03
50394;BME280;36308;46.312;25.288;2023-06-19T02:49:07;96177.06;;;16.27;76.11
50394;BME280;36308;46.312;25.288;2023-06-19T02:51:32;96169.19;;;16.26;76.17
50394;BME280;36308;46.312;25.288;2023-06-19T02:53:58;96172.44;;;16.28;75.95
50394;BME280;36308;46.312;25.288;2023-06-19T02:56:26;96175.44;;;16.26;76.22
50394;BME280;36308;46.312;25.288;2023-06-19T02:58:51;96175.16;;;16.28;75.97
50394;BME280;36308;46.312;25.288;2023-06-19T03:01:17;96177.06;;;16.27;76.24
50394;BME280;36308;46.312;25.288;2023-06-19T03:03:42;96173.50;;;16.27;76.20
50394;BME280;36308;46.312;25.288;2023-06-19T03:06:08;96171.91;;;16.26;76.14
50394;BME280;36308;46.312;25.288;2023-06-19T03:08:34;96172.72;;;16.26;75.92
50394;BME280;36308;46.312;25.288;2023-06-19T03:11:00;96174.63;;;16.26;76.29
50394;BME280;36308;46.312;25.288;2023-06-19T03:13:26;96158.41;;;16.21;76.33
50394;BME280;36308;46.312;25.288;2023-06-19T03:15:51;96169.19;;;16.26;76.30
50394;BME280;36308;46.312;25.288;2023-06-19T03:18:17;96171.91;;;16.26;76.29
50394;BME280;36308;46.312;25.288;2023-06-19T03:20:42;96170.00;;;16.26;76.35
50394;BME280;36308;46.312;25.288;2023-06-19T03:23:08;96163.78;;;16.26;76.14
50394;BME280;36308;46.312;25.288;2023-06-19T03:25:33;96170.81;;;16.27;75.92
50394;BME280;36308;46.312;25.288;2023-06-19T03:28:03;96173.50;;;16.27;76.44
50394;BME280;36308;46.312;25.288;2023-06-19T03:30:30;96176.53;;;16.25;76.51
50394;BME280;36308;46.312;25.288;2023-06-19T03:32:55;96182.75;;;16.26;76.22
50394;BME280;36308;46.312;25.288;2023-06-19T03:35:21;96181.13;;;16.25;76.60
50394;BME280;36308;46.312;25.288;2023-06-19T03:37:46;96187.38;;;16.25;76.01
50394;BME280;36308;46.312;25.288;2023-06-19T03:40:12;96176.81;;;16.24;76.07
50394;BME280;36308;46.312;25.288;2023-06-19T03:42:39;96177.63;;;16.24;76.14
50394;BME280;36308;46.312;25.288;2023-06-19T03:45:05;96175.19;;;16.23;76.14
50394;BME280;36308;46.312;25.288;2023-06-19T03:47:31;96175.19;;;16.23;76.16
50394;BME280;36308;46.312;25.288;2023-06-19T03:49:57;96177.09;;;16.22;76.20
50394;BME280;36308;46.312;25.288;2023-06-19T03:52:23;96175.19;;;16.23;76.23
50394;BME280;36308;46.312;25.288;2023-06-19T03:54:49;96171.97;;;16.21;76.58
50394;BME280;36308;46.312;25.288;2023-06-19T03:57:15;96169.78;;;16.23;76.31
50394;BME280;36308;46.312;25.288;2023-06-19T03:59:40;96170.59;;;16.23;76.50
50394;BME280;36308;46.312;25.288;2023-06-19T04:02:05;96171.41;;;16.24;76.61
50394;BME280;36308;46.312;25.288;2023-06-19T04:04:31;96173.00;;;16.25;76.40
50394;BME280;36308;46.312;25.288;2023-06-19T04:06:56;96167.56;;;16.25;77.05
50394;BME280;36308;46.312;25.288;2023-06-19T04:09:24;96163.78;;;16.26;76.67
50394;BME280;36308;46.312;25.288;2023-06-19T04:11:49;96165.38;;;16.27;76.72
50394;BME280;36308;46.312;25.288;2023-06-19T04:14:15;96170.00;;;16.26;77.07
50394;BME280;36308;46.312;25.288;2023-06-19T04:16:40;96165.38;;;16.27;77.05
50394;BME280;36308;46.312;25.288;2023-06-19T04:19:06;96167.53;;;16.30;76.86
50394;BME280;36308;46.312;25.288;2023-06-19T04:21:31;96167.00;;;16.28;76.77
50394;BME280;36308;46.312;25.288;2023-06-19T04:23:57;96175.66;;;16.30;76.76
50394;BME280;36308;46.312;25.288;2023-06-19T04:26:22;96175.66;;;16.30;76.75
50394;BME280;36308;46.312;25.288;2023-06-19T04:28:49;96169.13;;;16.31;76.83
50394;BME280;36308;46.312;25.288;2023-06-19T04:31:15;96164.22;;;16.33;77.08
50394;BME280;36308;46.312;25.288;2023-06-19T04:33:45;96176.09;;;16.37;77.55
50394;BME280;36308;46.312;25.288;2023-06-19T04:36:10;96190.19;;;16.39;77.34
50394;BME280;36308;46.312;25.288;2023-06-19T04:38:36;96184.19;;;16.42;77.73
50394;BME280;36308;46.312;25.288;2023-06-19T04:41:01;96174.38;;;16.46;77.50
50394;BME280;36308;46.312;25.288;2023-06-19T04:43:27;96180.31;;;16.48;77.60
50394;BME280;36308;46.312;25.288;2023-06-19T04:45:52;96166.16;;;16.51;77.45
50394;BME280;36308;46.312;25.288;2023-06-19T04:48:18;96180.75;;;16.55;77.57
50394;BME280;36308;46.312;25.288;2023-06-19T04:50:44;96186.69;;;16.57;77.49
50394;BME280;36308;46.312;25.288;2023-06-19T04:53:09;96186.13;;;16.61;77.14
50394;BME280;36308;46.312;25.288;2023-06-19T04:55:35;96186.63;;;16.63;77.01
50394;BME280;36308;46.312;25.288;2023-06-19T04:58:00;96189.03;;;16.64;77.03
50394;BME280;36308;46.312;25.288;2023-06-19T05:00:26;96186.56;;;16.68;76.99
50394;BME280;36308;46.312;25.288;2023-06-19T05:02:51;96189.78;;;16.70;76.87
50394;BME280;36308;46.312;25.288;2023-06-19T05:05:17;96188.69;;;16.71;76.53
50394;BME280;36308;46.312;25.288;2023-06-19T05:07:44;96190.25;;;16.77;76.82
50394;BME280;36308;46.312;25.288;2023-06-19T05:10:10;96195.63;;;16.82;76.65
50394;BME280;36308;46.312;25.288;2023-06-19T05:12:36;96204.50;;;16.88;76.63
50394;BME280;36308;46.312;25.288;2023-06-19T05:15:02;96199.81;;;16.93;76.38
50394;BME280;36308;46.312;25.288;2023-06-19T05:17:27;96194.81;;;17.01;76.56
50394;BME280;36308;46.312;25.288;2023-06-19T05:19:53;96198.25;;;17.06;76.29
50394;BME280;36308;46.312;25.288;2023-06-19T05:22:18;96200.09;;;17.11;76.27
50394;BME280;36308;46.312;25.288;2023-06-19T05:24:44;96201.34;;;17.19;76.06
50394;BME280;36308;46.312;25.288;2023-06-19T05:27:10;96195.59;;;17.20;76.07
50394;BME280;36308;46.312;25.288;2023-06-19T05:29:35;96190.59;;;17.27;75.74
50394;BME280;36308;46.312;25.288;2023-06-19T05:32:01;96192.13;;;17.33;75.59
50394;BME280;36308;46.312;25.288;2023-06-19T05:34:27;96192.03;;;17.38;75.52
50394;BME280;36308;46.312;25.288;2023-06-19T05:36:52;96189.25;;;17.44;75.07
50394;BME280;36308;46.312;25.288;2023-06-19T05:39:18;96200.00;;;17.49;75.01
50394;BME280;36308;46.312;25.288;2023-06-19T05:41:44;96196.41;;;17.53;74.82
50394;BME280;36308;46.312;25.288;2023-06-19T05:44:11;96204.25;;;17.55;74.28
50394;BME280;36308;46.312;25.288;2023-06-19T05:46:41;96211.72;;;17.63;74.48
50394;BME280;36308;46.312;25.288;2023-06-19T05:49:07;96208.94;;;17.68;74.43
50394;BME280;36308;46.312;25.288;2023-06-19T05:51:32;96208.56;;;17.75;74.13
50394;BME280;36308;46.312;25.288;2023-06-19T05:53:58;96212.00;;;17.81;74.10
50394;BME280;36308;46.312;25.288;2023-06-19T05:56:31;96204.56;;;17.86;73.72
50394;BME280;36308;46.312;25.288;2023-06-19T05:58:59;96211.00;;;17.90;73.31
50394;BME280;36308;46.312;25.288;2023-06-19T06:01:25;96212.53;;;17.96;73.04
50394;BME280;36308;46.312;25.288;2023-06-19T06:03:53;96213.25;;;18.02;72.72
50394;BME280;36308;46.312;25.288;2023-06-19T06:06:19;96204.97;;;18.07;72.66
50394;BME280;36308;46.312;25.288;2023-06-19T06:08:44;96208.72;;;18.11;72.02
50394;BME280;36308;46.312;25.288;2023-06-19T06:11:10;96207.84;;;18.16;71.86
50394;BME280;36308;46.312;25.288;2023-06-19T06:13:35;96212.34;;;18.21;71.41
50394;BME280;36308;46.312;25.288;2023-06-19T06:16:01;96207.63;;;18.26;71.15
50394;BME280;36308;46.312;25.288;2023-06-19T06:18:26;96211.03;;;18.32;70.76
50394;BME280;36308;46.312;25.288;2023-06-19T06:20:52;96206.59;;;18.36;70.35
50394;BME280;36308;46.312;25.288;2023-06-19T06:23:18;96217.06;;;18.43;70.10
50394;BME280;36308;46.312;25.288;2023-06-19T06:25:43;96213.63;;;18.51;69.65
50394;BME280;36308;46.312;25.288;2023-06-19T06:28:11;96212.63;;;18.61;69.29
50394;BME280;36308;46.312;25.288;2023-06-19T06:30:36;96211.91;;;18.69;69.15
50394;BME280;36308;46.312;25.288;2023-06-19T06:33:02;96204.16;;;18.76;69.08
50394;BME280;36308;46.312;25.288;2023-06-19T06:35:27;96198.31;;;18.83;68.79
50394;BME280;36308;46.312;25.288;2023-06-19T06:37:53;96203.84;;;18.91;68.55
50394;BME280;36308;46.312;25.288;2023-06-19T06:40:19;96198.25;;;18.96;68.21
50394;BME280;36308;46.312;25.288;2023-06-19T06:42:44;96196.44;;;19.06;67.83
50394;BME280;36308;46.312;25.288;2023-06-19T06:45:10;96196.28;;;19.11;67.39
50394;BME280;36308;46.312;25.288;2023-06-19T06:47:35;96200.41;;;19.22;67.37
50394;BME280;36308;46.312;25.288;2023-06-19T06:50:01;96192.28;;;19.31;67.19
50394;BME280;36308;46.312;25.288;2023-06-19T06:52:26;96198.94;;;19.38;67.32
50394;BME280;36308;46.312;25.288;2023-06-19T06:54:53;96192.41;;;19.48;67.21
50394;BME280;36308;46.312;25.288;2023-06-19T06:57:18;96194.22;;;19.53;66.75
50394;BME280;36308;46.312;25.288;2023-06-19T06:59:44;96197.28;;;19.60;66.65
50394;BME280;36308;46.312;25.288;2023-06-19T07:02:09;96188.50;;;19.63;66.60
50394;BME280;36308;46.312;25.288;2023-06-19T07:04:35;96198.66;;;19.71;66.42
50394;BME280;36308;46.312;25.288;2023-06-19T07:07:00;96198.84;;;19.75;66.35
50394;BME280;36308;46.312;25.288;2023-06-19T07:09:27;96193.28;;;19.80;66.35
50394;BME280;36308;46.312;25.288;2023-06-19T07:11:52;96195.56;;;19.87;66.19
50394;BME280;36308;46.312;25.288;2023-06-19T07:14:18;96200.06;;;19.91;65.94
50394;BME280;36308;46.312;25.288;2023-06-19T07:16:44;96200.09;;;20.00;66.19
50394;BME280;36308;46.312;25.288;2023-06-19T07:19:11;96197.09;;;20.10;65.86
50394;BME280;36308;46.312;25.288;2023-06-19T07:21:36;96196.81;;;20.21;65.67
50394;BME280;36308;46.312;25.288;2023-06-19T07:24:04;96199.06;;;20.27;65.33
50394;BME280;36308;46.312;25.288;2023-06-19T07:26:30;96198.31;;;20.35;65.17
50394;BME280;36308;46.312;25.288;2023-06-19T07:28:56;96195.13;;;20.42;64.69
50394;BME280;36308;46.312;25.288;2023-06-19T07:31:21;96199.00;;;20.50;64.05
50394;BME280;36308;46.312;25.288;2023-06-19T07:33:47;96196.78;;;20.61;64.29
50394;BME280;36308;46.312;25.288;2023-06-19T07:36:12;96199.72;;;20.73;64.35
50394;BME280;36308;46.312;25.288;2023-06-19T07:38:40;96193.31;;;20.86;63.87
50394;BME280;36308;46.312;25.288;2023-06-19T07:41:09;96191.88;;;20.97;63.05
50394;BME280;36308;46.312;25.288;2023-06-19T07:43:36;96205.88;;;21.13;62.49
50394;BME280;36308;46.312;25.288;2023-06-19T07:46:02;96205.25;;;21.25;62.12
50394;BME280;36308;46.312;25.288;2023-06-19T07:48:28;96208.44;;;21.36;61.88
50394;BME280;36308;46.312;25.288;2023-06-19T07:50:53;96201.84;;;21.46;61.22
50394;BME280;36308;46.312;25.288;2023-06-19T07:53:19;96201.53;;;21.56;60.51
50394;BME280;36308;46.312;25.288;2023-06-19T07:55:44;96198.63;;;21.61;60.07
50394;BME280;36308;46.312;25.288;2023-06-19T07:58:10;96204.56;;;21.72;60.00
50394;BME280;36308;46.312;25.288;2023-06-19T08:00:35;96199.53;;;21.83;59.89
50394;BME280;36308;46.312;25.288;2023-06-19T08:03:01;96218.66;;;21.91;60.01
50394;BME280;36308;46.312;25.288;2023-06-19T08:05:27;96211.25;;;22.00;59.89
50394;BME280;36308;46.312;25.288;2023-06-19T08:07:52;96212.38;;;22.08;59.95
50394;BME280;36308;46.312;25.288;2023-06-19T08:10:18;96213.44;;;22.16;60.13
50394;BME280;36308;46.312;25.288;2023-06-19T08:12:44;96212.13;;;22.22;59.28
50394;BME280;36308;46.312;25.288;2023-06-19T08:15:11;96211.69;;;22.29;59.13
50394;BME280;36308;46.312;25.288;2023-06-19T08:17:36;96206.47;;;22.36;58.96
50394;BME280;36308;46.312;25.288;2023-06-19T08:20:02;96213.84;;;22.44;58.45
50394;BME280;36308;46.312;25.288;2023-06-19T08:22:30;96219.47;;;22.48;58.26
50394;BME280;36308;46.312;25.288;2023-06-19T08:24:56;96220.75;;;22.50;57.92
50394;BME280;36308;46.312;25.288;2023-06-19T08:27:21;96222.81;;;22.53;57.41
50394;BME280;36308;46.312;25.288;2023-06-19T08:29:47;96222.16;;;22.56;56.86
50394;BME280;36308;46.312;25.288;2023-06-19T08:32:12;96215.22;;;22.59;57.03
50394;BME280;36308;46.312;25.288;2023-06-19T08:34:38;96213.56;;;22.67;57.10
50394;BME280;36308;46.312;25.288;2023-06-19T08:37:05;96215.47;;;22.75;56.72
50394;BME280;36308;46.312;25.288;2023-06-19T08:39:30;96211.19;;;22.86;56.88
50394;BME280;36308;46.312;25.288;2023-06-19T08:41:56;96218.38;;;22.99;56.99
50394;BME280;36308;46.312;25.288;2023-06-19T08:44:21;96208.78;;;23.14;56.89
50394;BME280;36308;46.312;25.288;2023-06-19T08:46:47;96209.31;;;23.29;56.42
50394;BME280;36308;46.312;25.288;2023-06-19T08:49:16;96198.25;;;23.37;55.67
50394;BME280;36308;46.312;25.288;2023-06-19T08:51:41;96193.47;;;23.47;55.22
50394;BME280;36308;46.312;25.288;2023-06-19T08:54:07;96195.00;;;23.56;55.35
50394;BME280;36308;46.312;25.288;2023-06-19T08:56:34;96196.31;;;23.71;54.05
50394;BME280;36308;46.312;25.288;2023-06-19T08:59:17;96201.22;;;23.87;53.32
50394;BME280;36308;46.312;25.288;2023-06-19T09:01:47;96203.06;;;23.95;53.18
50394;BME280;36308;46.312;25.288;2023-06-19T09:04:21;96196.88;;;23.98;52.89
50394;BME280;36308;46.312;25.288;2023-06-19T09:09:14;96207.19;;;24.01;53.05
50394;BME280;36308;46.312;25.288;2023-06-19T09:11:40;96198.03;;;24.09;53.37
50394;BME280;36308;46.312;25.288;2023-06-19T09:14:09;96199.19;;;24.20;52.98
50394;BME280;36308;46.312;25.288;2023-06-19T09:16:40;96206.53;;;24.29;52.86
50394;BME280;36308;46.312;25.288;2023-06-19T09:19:06;96205.84;;;24.32;52.73
50394;BME280;36308;46.312;25.288;2023-06-19T09:21:31;96202.53;;;24.38;52.44
50394;BME280;36308;46.312;25.288;2023-06-19T09:24:07;96205.66;;;24.49;52.19
50394;BME280;36308;46.312;25.288;2023-06-19T09:26:34;96201.28;;;24.60;51.95
50394;BME280;36308;46.312;25.288;2023-06-19T09:29:13;96210.00;;;24.75;51.22
50394;BME280;36308;46.312;25.288;2023-06-19T09:31:41;96200.81;;;24.83;50.53
50394;BME280;36308;46.312;25.288;2023-06-19T09:34:07;96189.81;;;24.95;50.58
50394;BME280;36308;46.312;25.288;2023-06-19T09:36:34;96191.72;;;25.07;49.76
50394;BME280;36308;46.312;25.288;2023-06-19T09:39:02;96188.94;;;25.19;49.27
50394;BME280;36308;46.312;25.288;2023-06-19T09:41:29;96198.69;;;25.29;48.55
50394;BME280;36308;46.312;25.288;2023-06-19T09:43:56;96180.16;;;25.42;49.31
50394;BME280;36308;46.312;25.288;2023-06-19T09:46:28;96188.47;;;25.58;48.75
50394;BME280;36308;46.312;25.288;2023-06-19T09:48:58;96180.16;;;25.70;48.00
50394;BME280;36308;46.312;25.288;2023-06-19T09:51:32;96187.28;;;25.87;48.60
50394;BME280;36308;46.312;25.288;2023-06-19T09:53:58;96179.78;;;26.00;47.26
50394;BME280;36308;46.312;25.288;2023-06-19T09:56:24;96176.50;;;26.10;46.75
50394;BME280;36308;46.312;25.288;2023-06-19T09:58:54;96184.78;;;26.26;47.22
50394;BME280;36308;46.312;25.288;2023-06-19T10:01:20;96184.06;;;26.45;47.84
50394;BME280;36308;46.312;25.288;2023-06-19T10:03:46;96175.47;;;26.63;47.09
50394;BME280;36308;46.312;25.288;2023-06-19T10:06:16;96176.59;;;26.77;46.57
50394;BME280;36308;46.312;25.288;2023-06-19T10:08:43;96161.84;;;26.89;44.48
50394;BME280;36308;46.312;25.288;2023-06-19T10:11:13;96170.00;;;27.01;44.80
50394;BME280;36308;46.312;25.288;2023-06-19T10:13:40;96165.97;;;27.15;44.80
50394;BME280;36308;46.312;25.288;2023-06-19T10:16:07;96162.78;;;27.32;44.36
50394;BME280;36308;46.312;25.288;2023-06-19T10:18:45;96158.34;;;27.47;44.41
50394;BME280;36308;46.312;25.288;2023-06-19T10:21:20;96159.41;;;27.62;44.68
50394;BME280;36308;46.312;25.288;2023-06-19T10:23:54;96164.50;;;27.79;44.87
50394;BME280;36308;46.312;25.288;2023-06-19T10:26:20;96155.31;;;27.95;44.26
50394;BME280;36308;46.312;25.288;2023-06-19T10:28:47;96150.81;;;28.06;43.34
50394;BME280;36308;46.312;25.288;2023-06-19T10:31:13;96150.47;;;28.11;41.94
50394;BME280;36308;46.312;25.288;2023-06-19T10:33:39;96150.22;;;28.20;42.56
50394;BME280;36308;46.312;25.288;2023-06-19T10:36:21;96152.00;;;28.32;42.15
50394;BME280;36308;46.312;25.288;2023-06-19T10:38:48;96162.88;;;28.44;43.37
50394;BME280;36308;46.312;25.288;2023-06-19T10:41:21;96160.00;;;28.60;43.07
50394;BME280;36308;46.312;25.288;2023-06-19T10:43:56;96164.47;;;28.68;43.03
50394;BME280;36308;46.312;25.288;2023-06-19T10:46:23;96161.38;;;28.73;42.20
50394;BME280;36308;46.312;25.288;2023-06-19T10:48:49;96156.25;;;28.75;41.37
50394;BME280;36308;46.312;25.288;2023-06-19T10:51:19;96145.34;;;28.86;41.03
50394;BME280;36308;46.312;25.288;2023-06-19T10:53:44;96153.78;;;28.97;41.09
50394;BME280;36308;46.312;25.288;2023-06-19T10:56:10;96150.66;;;28.98;40.73
50394;BME280;36308;46.312;25.288;2023-06-19T10:58:35;96151.84;;;28.97;40.73
50394;BME280;36308;46.312;25.288;2023-06-19T11:01:01;96142.41;;;29.02;41.01
50394;BME280;36308;46.312;25.288;2023-06-19T11:03:26;96145.31;;;29.13;41.02
50394;BME280;36308;46.312;25.288;2023-06-19T11:05:52;96141.13;;;29.23;40.14
50394;BME280;36308;46.312;25.288;2023-06-19T11:08:19;96145.56;;;29.31;40.28
50394;BME280;36308;46.312;25.288;2023-06-19T11:10:45;96149.63;;;29.40;39.69
50394;BME280;36308;46.312;25.288;2023-06-19T11:13:19;96137.03;;;29.47;39.50
50394;BME280;36308;46.312;25.288;2023-06-19T11:15:47;96144.66;;;29.57;39.15
50394;BME280;36308;46.312;25.288;2023-06-19T11:18:16;96147.56;;;29.68;38.89
50394;BME280;36308;46.312;25.288;2023-06-19T11:20:50;96140.56;;;29.77;38.27
50394;BME280;36308;46.312;25.288;2023-06-19T11:23:17;96146.25;;;29.92;37.99
50394;BME280;36308;46.312;25.288;2023-06-19T11:25:43;96147.06;;;29.96;37.42
50394;BME280;36308;46.312;25.288;2023-06-19T11:28:15;96152.63;;;29.96;37.82
50394;BME280;36308;46.312;25.288;2023-06-19T11:30:43;96158.53;;;29.94;37.80
50394;BME280;36308;46.312;25.288;2023-06-19T11:33:21;96150.97;;;29.88;37.65
50394;BME280;36308;46.312;25.288;2023-06-19T11:35:51;96143.78;;;29.83;37.86
50394;BME280;36308;46.312;25.288;2023-06-19T11:38:18;96136.25;;;29.84;36.91
50394;BME280;36308;46.312;25.288;2023-06-19T11:40:44;96137.88;;;29.85;37.65
50394;BME280;36308;46.312;25.288;2023-06-19T11:43:11;96141.91;;;29.91;37.89
50394;BME280;36308;46.312;25.288;2023-06-19T11:45:49;96142.78;;;30.02;37.81
50394;BME280;36308;46.312;25.288;2023-06-19T11:48:21;96137.75;;;30.15;37.27
50394;BME280;36308;46.312;25.288;2023-06-19T11:50:47;96142.63;;;30.29;37.20
50394;BME280;36308;46.312;25.288;2023-06-19T11:53:13;96149.84;;;30.37;37.28
50394;BME280;36308;46.312;25.288;2023-06-19T11:55:38;96162.94;;;30.40;37.61
50394;BME280;36308;46.312;25.288;2023-06-19T11:58:04;96164.88;;;30.36;38.10
50394;BME280;36308;46.312;25.288;2023-06-19T12:00:29;96145.78;;;30.27;38.27
50394;BME280;36308;46.312;25.288;2023-06-19T12:02:55;96131.41;;;30.14;38.22
50394;BME280;36308;46.312;25.288;2023-06-19T12:05:22;96130.53;;;30.03;38.79
50394;BME280;36308;46.312;25.288;2023-06-19T12:07:48;96126.38;;;29.86;38.80
50394;BME280;36308;46.312;25.288;2023-06-19T12:10:13;96144.56;;;29.84;39.06
50394;BME280;36308;46.312;25.288;2023-06-19T12:12:39;96145.25;;;29.73;39.09
50394;BME280;36308;46.312;25.288;2023-06-19T12:15:05;96160.31;;;29.72;39.45
50394;BME280;36308;46.312;25.288;2023-06-19T12:17:31;96161.00;;;29.66;38.62
50394;BME280;36308;46.312;25.288;2023-06-19T12:19:56;96151.38;;;29.56;38.74
50394;BME280;36308;46.312;25.288;2023-06-19T12:22:22;96143.03;;;29.52;38.98
50394;BME280;36308;46.312;25.288;2023-06-19T12:24:48;96151.28;;;29.49;38.86
50394;BME280;36308;46.312;25.288;2023-06-19T12:27:13;96144.97;;;29.48;39.10
50394;BME280;36308;46.312;25.288;2023-06-19T12:29:39;96129.81;;;29.38;38.70
50394;BME280;36308;46.312;25.288;2023-06-19T12:32:05;96132.16;;;29.36;38.52
50394;BME280;36308;46.312;25.288;2023-06-19T12:34:30;96117.91;;;29.34;39.00
50394;BME280;36308;46.312;25.288;2023-06-19T12:36:56;96117.91;;;29.34;39.04
50394;BME280;36308;46.312;25.288;2023-06-19T12:39:25;96111.13;;;29.28;38.89
50394;BME280;36308;46.312;25.288;2023-06-19T12:41:51;96107.59;;;29.31;38.82
50394;BME280;36308;46.312;25.288;2023-06-19T12:44:17;96110.00;;;29.33;39.03
50394;BME280;36308;46.312;25.288;2023-06-19T12:46:42;96113.97;;;29.35;38.86
50394;BME280;36308;46.312;25.288;2023-06-19T12:49:08;96102.13;;;29.38;38.85
50394;BME280;36308;46.312;25.288;2023-06-19T12:51:34;96099.41;;;29.42;38.89
50394;BME280;36308;46.312;25.288;2023-06-19T12:54:02;96106.06;;;29.37;38.99